Time;durP1;ratioP1;P1;durP2;ratioP2;P2;SDS_P1;SDS_P2;PMS_P1;PMS_P2;Temp;Humidity;BMP_temperature;BMP_pressure;BME280_temperature;BME280_humidity;BME280_pressure;Samples;Min_cycle;Max_cycle;Signal;HPM_P1;HPM_P2
2021/09/24 00:01:20;;;;;;;2.45;1.48;;;19.20;70.60;;;;;;10497695;28;20102;-52
2021/09/24 00:06:21;;;;;;;3.13;1.77;;;19.20;71.20;;;;;;10497204;28;20820;-53
2021/09/24 00:11:21;;;;;;;2.50;1.50;;;19.20;70.60;;;;;;10497080;28;20515;-53
2021/09/24 00:16:22;;;;;;;4.13;1.83;;;19.20;70.60;;;;;;10497492;28;20033;-50
2021/09/24 00:21:23;;;;;;;4.72;1.85;;;19.10;70.60;;;;;;10505937;28;20115;-50
2021/09/24 00:26:24;;;;;;;2.35;1.58;;;19.10;70.60;;;;;;10496868;28;20025;-50
2021/09/24 00:31:26;;;;;;;4.80;2.05;;;19.10;70.60;;;;;;10467487;28;20044;-47
2021/09/24 00:36:27;;;;;;;3.28;1.85;;;19.20;70.60;;;;;;10496597;28;20082;-47
2021/09/24 00:41:28;;;;;;;3.63;1.90;;;19.20;70.50;;;;;;10496796;28;20522;-50
2021/09/24 00:46:28;;;;;;;2.83;1.67;;;19.10;71.10;;;;;;10496365;28;20116;-50
2021/09/24 00:51:29;;;;;;;4.38;2.10;;;19.10;70.60;;;;;;10496546;28;20484;-48
2021/09/24 00:56:30;;;;;;;2.88;1.67;;;19.10;70.60;;;;;;10496238;28;20099;-49
2021/09/24 01:01:31;;;;;;;3.50;1.42;;;19.10;70.60;;;;;;10499961;28;20043;-48
2021/09/24 01:06:32;;;;;;;3.75;1.92;;;19.10;70.60;;;;;;10476222;28;20083;-48
2021/09/24 01:11:36;;;;;;;3.70;1.80;;;19.10;70.60;;;;;;10504194;28;20434;-53
2021/09/24 01:16:36;;;;;;;4.47;2.10;;;19.20;70.60;;;;;;10503678;28;20086;-53
2021/09/24 01:21:41;;;;;;;4.70;2.13;;;19.10;70.60;;;;;;10513156;28;20036;-51
2021/09/24 01:26:51;;;;;;;3.28;1.63;;;19.10;70.60;;;;;;10501958;28;20054;-51
2021/09/24 01:31:52;;;;;;;3.75;1.75;;;19.10;70.60;;;;;;10503359;28;20385;-50
2021/09/24 01:36:53;;;;;;;2.55;1.98;;;19.10;70.50;;;;;;10502989;28;20031;-50
2021/09/24 01:41:54;;;;;;;2.85;1.35;;;19.10;70.60;;;;;;10503247;28;20033;-47
2021/09/24 01:46:55;;;;;;;3.45;1.83;;;19.10;70.60;;;;;;10502688;28;20085;-48
2021/09/24 01:51:55;;;;;;;4.78;2.00;;;19.10;70.60;;;;;;10502627;28;20033;-48
2021/09/24 01:56:56;;;;;;;4.07;2.35;;;19.10;70.60;;;;;;10502202;28;20417;-47
2021/09/24 02:01:57;;;;;;;3.30;1.63;;;19.10;70.60;;;;;;10502500;28;20090;-47
2021/09/24 02:06:58;;;;;;;5.10;1.73;;;19.10;70.60;;;;;;10500744;28;20027;-47
2021/09/24 02:11:59;;;;;;;3.95;2.10;;;19.10;70.60;;;;;;10501477;28;20063;-47
2021/09/24 02:17:00;;;;;;;1.75;1.42;;;19.10;70.60;;;;;;10500407;28;20035;-51
2021/09/24 02:22:02;;;;;;;3.05;1.63;;;19.10;70.60;;;;;;10511418;28;20060;-49
2021/09/24 02:27:03;;;;;;;2.92;1.65;;;19.10;70.60;;;;;;10501145;28;20123;-48
2021/09/24 02:32:05;;;;;;;3.30;1.33;;;19.10;70.60;;;;;;10487570;28;20024;-47
2021/09/24 02:37:06;;;;;;;3.35;1.60;;;19.10;70.60;;;;;;10501027;28;20068;-48
2021/09/24 02:42:06;;;;;;;3.38;1.27;;;19.10;70.60;;;;;;10500463;28;20052;-53
2021/09/24 02:47:09;;;;;;;1.85;1.30;;;19.10;70.60;;;;;;10500480;28;20171;-48
2021/09/24 02:52:09;;;;;;;2.58;1.48;;;19.10;70.60;;;;;;10500573;28;20082;-48
2021/09/24 02:57:10;;;;;;;2.97;1.42;;;19.10;70.60;;;;;;10500210;28;20166;-48
2021/09/24 03:02:10;;;;;;;1.80;1.10;;;19.10;70.60;;;;;;10499750;28;20036;-50
2021/09/24 03:07:11;;;;;;;3.33;1.55;;;19.10;70.60;;;;;;10499781;28;20167;-51
2021/09/24 03:12:12;;;;;;;3.42;1.70;;;19.10;70.60;;;;;;10498258;28;20456;-49
2021/09/24 03:17:12;;;;;;;4.72;1.75;;;19.10;70.60;;;;;;10499578;28;20052;-50
2021/09/24 03:22:13;;;;;;;4.90;1.50;;;19.10;70.60;;;;;;10508773;28;20103;-48
2021/09/24 03:27:14;;;;;;;3.83;1.35;;;19.10;70.60;;;;;;10497700;28;20045;-48
2021/09/24 03:32:19;;;;;;;2.25;1.30;;;19.10;70.60;;;;;;10483982;28;20028;-48
2021/09/24 03:37:19;;;;;;;2.00;0.82;;;19.00;70.50;;;;;;10499098;28;20389;-47
2021/09/24 03:42:20;;;;;;;3.53;1.75;;;19.10;70.60;;;;;;10498042;28;20089;-47
2021/09/24 03:47:21;;;;;;;2.08;1.50;;;19.10;70.60;;;;;;10497863;28;20215;-48
2021/09/24 03:52:21;;;;;;;2.65;1.60;;;19.00;70.50;;;;;;10497763;28;20045;-51
2021/09/24 03:57:22;;;;;;;2.53;1.77;;;19.00;70.50;;;;;;10505892;28;20423;-48
2021/09/24 04:02:23;;;;;;;2.75;1.88;;;19.00;70.50;;;;;;10497425;28;20484;-53
2021/09/24 04:07:23;;;;;;;3.33;2.08;;;19.00;70.60;;;;;;10497521;28;20063;-53
2021/09/24 04:12:24;;;;;;;3.20;2.22;;;19.00;70.50;;;;;;10496708;28;20485;-48
2021/09/24 04:17:25;;;;;;;2.70;1.92;;;19.10;70.60;;;;;;10489736;28;20048;-50
2021/09/24 04:22:26;;;;;;;3.22;2.42;;;19.00;70.50;;;;;;10492836;28;20036;-48
2021/09/24 04:27:27;;;;;;;3.13;2.00;;;19.00;70.50;;;;;;10494227;28;20075;-48
2021/09/24 04:32:27;;;;;;;3.60;2.30;;;19.00;70.60;;;;;;10493741;28;20020;-50
2021/09/24 04:37:28;;;;;;;5.05;2.45;;;19.00;70.50;;;;;;10494224;28;20033;-47
2021/09/24 04:42:29;;;;;;;4.18;3.03;;;19.00;70.60;;;;;;10470490;28;20068;-49
2021/09/24 04:47:30;;;;;;;3.70;2.45;;;19.00;70.60;;;;;;10496234;28;20477;-48
2021/09/24 04:52:31;;;;;;;6.28;3.60;;;19.00;70.70;;;;;;10491195;28;20689;-52
2021/09/24 04:57:31;;;;;;;4.60;3.35;;;19.10;72.50;;;;;;10495747;28;20032;-54
2021/09/24 05:02:32;;;;;;;8.77;4.38;;;19.20;72.00;;;;;;10495086;28;20413;-53
2021/09/24 05:07:33;;;;;;;9.80;4.30;;;19.20;72.20;;;;;;10495233;28;20120;-53
2021/09/24 05:12:34;;;;;;;9.63;4.63;;;19.30;72.60;;;;;;10495845;28;20020;-56
2021/09/24 05:17:34;;;;;;;12.23;5.00;;;19.30;72.50;;;;;;10494714;28;20035;-55
2021/09/24 05:22:35;;;;;;;10.27;4.63;;;19.30;72.70;;;;;;10504948;28;20039;-55
2021/09/24 05:27:36;;;;;;;11.27;6.28;;;19.20;72.50;;;;;;10492804;28;20053;-55
2021/09/24 05:32:36;;;;;;;13.32;6.13;;;19.20;72.80;;;;;;10492637;28;20024;-55
2021/09/24 05:37:38;;;;;;;18.55;6.68;;;19.20;73.10;;;;;;10493068;28;20028;-50
2021/09/24 05:42:39;;;;;;;14.10;6.60;;;19.20;72.60;;;;;;10491214;28;20116;-54
2021/09/24 05:47:41;;;;;;;18.05;6.72;;;19.20;72.60;;;;;;10495004;28;20032;-55
2021/09/24 05:52:46;;;;;;;11.35;6.88;;;19.20;72.70;;;;;;10498888;28;20119;-55
2021/09/24 05:57:48;;;;;;;20.27;7.93;;;19.20;72.90;;;;;;10499190;28;20040;-50
2021/09/24 06:02:50;;;;;;;21.67;7.72;;;19.30;73.30;;;;;;10499901;28;20024;-55
2021/09/24 06:07:51;;;;;;;18.50;8.93;;;19.30;72.90;;;;;;10501246;28;20068;-55
2021/09/24 06:12:52;;;;;;;24.80;9.07;;;19.20;73.30;;;;;;10500793;28;20474;-55
2021/09/24 06:17:53;;;;;;;38.33;10.65;;;19.20;73.60;;;;;;10499279;28;20052;-56
2021/09/24 06:22:54;;;;;;;21.27;8.73;;;19.20;73.70;;;;;;10511191;28;20099;-56
2021/09/24 06:27:55;;;;;;;25.83;9.38;;;19.20;73.30;;;;;;10498116;28;20116;-55
2021/09/24 06:32:56;;;;;;;28.83;11.15;;;19.20;73.40;;;;;;10497861;28;20334;-54
2021/09/24 06:37:56;;;;;;;25.58;9.65;;;19.20;73.30;;;;;;10498584;28;20102;-55
2021/09/24 06:42:57;;;;;;;34.20;11.20;;;19.20;73.50;;;;;;10477752;28;20112;-56
2021/09/24 06:47:58;;;;;;;36.13;10.40;;;19.20;73.60;;;;;;10500314;28;20464;-56
2021/09/24 06:52:58;;;;;;;29.08;11.23;;;19.20;73.60;;;;;;10500027;28;20532;-55
2021/09/24 06:57:59;;;;;;;31.52;11.82;;;19.20;74.20;;;;;;10499880;28;20033;-56
2021/09/24 07:03:00;;;;;;;25.10;8.73;;;19.20;73.70;;;;;;10488419;28;20044;-57
2021/09/24 07:08:01;;;;;;;23.83;11.15;;;19.20;74.20;;;;;;10500367;28;20078;-56
2021/09/24 07:13:02;;;;;;;24.25;9.50;;;19.30;73.70;;;;;;10498055;28;20032;-56
2021/09/24 07:18:03;;;;;;;19.20;9.60;;;19.30;74.40;;;;;;10497978;28;20369;-57
2021/09/24 07:23:04;;;;;;;20.40;8.63;;;19.20;74.20;;;;;;10507430;28;20056;-57
2021/09/24 07:28:05;;;;;;;26.92;10.50;;;19.30;74.40;;;;;;10498396;28;20053;-58
2021/09/24 07:33:07;;;;;;;23.30;10.45;;;19.30;74.20;;;;;;10497777;28;20120;-55
2021/09/24 07:38:07;;;;;;;26.50;9.82;;;19.30;74.30;;;;;;10498197;28;20044;-56
2021/09/24 07:43:08;;;;;;;32.90;9.25;;;19.30;74.10;;;;;;10497817;28;20107;-55
2021/09/24 07:48:09;;;;;;;22.35;8.77;;;19.30;74.10;;;;;;10497713;28;20107;-56
2021/09/24 07:53:10;;;;;;;24.85;8.40;;;19.30;74.70;;;;;;10479773;28;20400;-55
2021/09/24 07:58:10;;;;;;;30.05;11.23;;;19.30;74.40;;;;;;10497599;28;20029;-57
2021/09/24 08:03:11;;;;;;;20.40;9.32;;;19.30;74.10;;;;;;10497311;28;20115;-55
2021/09/24 08:08:12;;;;;;;31.50;9.75;;;19.30;74.90;;;;;;10497207;28;20035;-56
2021/09/24 08:13:13;;;;;;;26.73;10.10;;;19.40;74.70;;;;;;10496975;28;20427;-55
2021/09/24 08:18:16;;;;;;;28.65;9.68;;;19.40;74.30;;;;;;10496660;28;20094;-62
2021/09/24 08:23:18;;;;;;;24.95;10.85;;;19.40;74.30;;;;;;10486636;28;20035;-60
2021/09/24 08:28:19;;;;;;;29.83;12.18;;;19.40;74.30;;;;;;10496864;28;20048;-62
2021/09/24 08:33:19;;;;;;;30.98;11.23;;;19.30;74.50;;;;;;10495723;28;20441;-62
2021/09/24 08:38:21;;;;;;;27.73;12.05;;;19.20;74.80;;;;;;10496590;28;20060;-60
2021/09/24 08:43:22;;;;;;;22.92;10.73;;;19.30;75.20;;;;;;10494513;28;20021;-60
2021/09/24 08:48:23;;;;;;;26.52;10.20;;;19.20;74.90;;;;;;10495320;28;20040;-62
2021/09/24 08:53:24;;;;;;;23.55;12.93;;;19.20;75.10;;;;;;10494220;28;20404;-61
2021/09/24 08:58:25;;;;;;;21.77;10.65;;;19.20;75.10;;;;;;10495309;28;20037;-61
2021/09/24 09:03:43;;;;;;;21.38;11.43;;;19.20;75.10;;;;;;10493792;28;20098;-61
2021/09/24 09:08:46;;;;;;;21.80;11.38;;;19.10;75.00;;;;;;10494278;28;20036;-62
2021/09/24 09:13:53;;;;;;;21.23;10.13;;;19.10;74.80;;;;;;10496042;28;20631;-61
2021/09/24 09:19:10;;;;;;;17.90;10.30;;;19.10;74.50;;;;;;10501724;28;20123;-62
2021/09/24 09:24:25;;;;;;;19.02;11.60;;;19.10;74.40;;;;;;10503597;28;20056;-61
2021/09/24 09:29:26;;;;;;;19.98;11.70;;;19.10;74.40;;;;;;10486058;28;20052;-61
2021/09/24 09:34:33;;;;;;;18.35;10.50;;;19.10;74.30;;;;;;10502494;28;20076;-61
2021/09/24 09:39:34;;;;;;;16.67;10.18;;;19.10;74.30;;;;;;10502254;28;20468;-62
2021/09/24 09:44:35;;;;;;;16.90;10.07;;;19.20;74.20;;;;;;10503353;28;20103;-61
2021/09/24 09:49:36;;;;;;;17.27;10.63;;;19.10;74.10;;;;;;10503145;28;20025;-61
2021/09/24 09:54:37;;;;;;;17.83;11.02;;;19.10;74.10;;;;;;10501588;28;20040;-60
2021/09/24 09:59:38;;;;;;;19.02;9.73;;;19.10;74.10;;;;;;10501468;28;20029;-61
2021/09/24 10:04:51;;;;;;;15.98;9.85;;;19.20;74.10;;;;;;10502473;28;20020;-61
2021/09/24 10:10:14;;;;;;;21.40;11.20;;;19.20;75.10;;;;;;10484604;28;20384;-59
2021/09/24 10:15:16;;;;;;;15.05;11.18;;;19.30;74.80;;;;;;10495976;28;20373;-63
2021/09/24 10:20:16;;;;;;;17.70;10.45;;;19.30;74.00;;;;;;10489113;28;20384;-62
2021/09/24 10:25:22;;;;;;;16.77;11.18;;;19.40;74.00;;;;;;10501958;28;20025;-61
2021/09/24 10:30:28;;;;;;;13.95;9.82;;;19.40;73.90;;;;;;10516906;28;20051;-62
2021/09/24 10:36:02;;;;;;;22.63;9.75;;;19.50;74.30;;;;;;10483413;28;20564;-63
2021/09/24 10:41:07;;;;;;;17.90;11.63;;;19.70;73.70;;;;;;10465560;28;20048;-61
2021/09/24 10:46:37;;;;;;;14.18;9.68;;;19.70;74.80;;;;;;10499998;28;20056;-61
2021/09/24 10:51:44;;;;;;;15.77;10.50;;;19.60;73.70;;;;;;10498185;28;20085;-63
2021/09/24 10:57:04;;;;;;;21.42;10.57;;;19.60;74.00;;;;;;10499160;28;20039;-63
2021/09/24 11:02:41;;;;;;;19.25;10.85;;;19.60;73.90;;;;;;10498854;28;20112;-62
2021/09/24 11:07:41;;;;;;;19.63;10.55;;;19.70;74.00;;;;;;10500184;28;20560;-64
2021/09/24 11:13:07;;;;;;;16.83;10.95;;;19.70;74.10;;;;;;10498648;28;20112;-63
2021/09/24 11:18:08;;;;;;;20.10;11.50;;;19.70;74.10;;;;;;10497051;28;20033;-61
2021/09/24 11:23:35;;;;;;;17.08;11.32;;;19.70;73.80;;;;;;10507862;28;20024;-63
2021/09/24 11:28:37;;;;;;;19.05;11.13;;;19.70;73.90;;;;;;10498774;28;20431;-61
2021/09/24 11:33:48;;;;;;;17.90;10.40;;;19.70;74.50;;;;;;10497523;28;20032;-61
2021/09/24 11:39:02;;;;;;;16.52;10.20;;;19.70;74.00;;;;;;10497666;28;20028;-60
2021/09/24 11:44:06;;;;;;;14.45;10.90;;;19.70;73.90;;;;;;10496045;28;20028;-59
2021/09/24 11:49:06;;;;;;;13.07;9.20;;;19.70;73.80;;;;;;10497959;28;20033;-59
2021/09/24 11:54:07;;;;;;;17.00;10.68;;;19.70;73.70;;;;;;10496262;28;20451;-62
2021/09/24 11:59:10;;;;;;;13.82;10.38;;;19.70;73.80;;;;;;10496712;28;20485;-61
2021/09/24 12:04:14;;;;;;;14.07;10.63;;;19.70;73.80;;;;;;10496508;28;20028;-61
2021/09/24 12:09:17;;;;;;;17.25;10.60;;;19.70;73.70;;;;;;10495414;28;20700;-61
2021/09/24 12:14:21;;;;;;;15.10;11.13;;;19.70;73.80;;;;;;10496292;28;20024;-60
2021/09/24 12:19:24;;;;;;;18.92;10.52;;;19.60;73.60;;;;;;10504845;28;20061;-60
2021/09/24 12:24:39;;;;;;;18.70;11.38;;;19.70;73.70;;;;;;10484061;28;20543;-59
2021/09/24 12:29:42;;;;;;;30.75;14.35;;;19.70;74.00;;;;;;10491258;28;20527;-59
2021/09/24 12:35:00;;;;;;;32.90;13.20;;;19.70;74.20;;;;;;10473796;28;20020;-61
2021/09/24 12:40:06;;;;;;;37.25;12.93;;;19.80;74.80;;;;;;10495770;28;20431;-60
2021/09/24 12:45:11;;;;;;;31.17;12.88;;;19.80;74.80;;;;;;10490085;28;20035;-59
2021/09/24 12:50:11;;;;;;;28.23;13.07;;;19.80;74.80;;;;;;10496398;28;20063;-60
2021/09/24 12:55:13;;;;;;;30.23;13.35;;;19.80;74.80;;;;;;10495714;28;20131;-61
2021/09/24 13:00:14;;;;;;;23.42;12.70;;;19.80;74.80;;;;;;10503392;28;20040;-60
2021/09/24 13:05:20;;;;;;;20.17;12.23;;;19.80;74.90;;;;;;10505306;28;20132;-61
2021/09/24 13:10:22;;;;;;;24.90;12.32;;;19.80;75.50;;;;;;10504813;28;20032;-59
2021/09/24 13:15:23;;;;;;;26.95;12.90;;;19.70;75.60;;;;;;10504072;28;20489;-61
2021/09/24 13:20:26;;;;;;;22.77;12.52;;;19.80;75.20;;;;;;10513577;28;20111;-61
2021/09/24 13:25:27;;;;;;;21.05;11.35;;;19.70;75.10;;;;;;10503642;28;20468;-60
2021/09/24 13:30:28;;;;;;;23.33;12.02;;;19.70;75.90;;;;;;10503186;28;20123;-60
2021/09/24 13:35:29;;;;;;;22.33;11.65;;;19.70;75.40;;;;;;10503556;28;20032;-60
2021/09/24 13:40:30;;;;;;;19.42;11.43;;;19.70;75.60;;;;;;10501816;28;20032;-61
2021/09/24 13:45:31;;;;;;;20.02;10.93;;;19.80;75.40;;;;;;10501919;28;20182;-61
2021/09/24 13:50:33;;;;;;;36.58;13.00;;;19.80;75.30;;;;;;10502127;28;20040;-61
2021/09/24 13:55:35;;;;;;;26.45;11.48;;;19.80;75.30;;;;;;10484945;28;20111;-60
2021/09/24 14:00:36;;;;;;;27.67;10.88;;;19.80;74.80;;;;;;10501147;28;20028;-60
2021/09/24 14:05:36;;;;;;;19.08;10.95;;;19.90;75.50;;;;;;10502494;28;20051;-61
2021/09/24 14:10:37;;;;;;;27.13;11.10;;;20.00;75.30;;;;;;10501233;28;20561;-60
2021/09/24 14:15:38;;;;;;;27.67;11.18;;;20.00;76.30;;;;;;10503299;28;20060;-63
2021/09/24 14:20:39;;;;;;;32.53;10.88;;;20.10;75.60;;;;;;10515521;28;20035;-61
2021/09/24 14:25:40;;;;;;;24.02;10.40;;;20.20;75.30;;;;;;10500169;28;20429;-60
2021/09/24 14:30:42;;;;;;;20.30;9.82;;;20.10;75.40;;;;;;10501019;28;20052;-62
2021/09/24 14:35:45;;;;;;;24.80;10.48;;;20.20;75.40;;;;;;10499920;28;20111;-63
2021/09/24 14:40:45;;;;;;;24.33;9.50;;;20.10;75.40;;;;;;10499393;28;20051;-61
2021/09/24 14:45:46;;;;;;;17.83;9.32;;;20.00;75.30;;;;;;10500728;28;20433;-62
2021/09/24 14:50:47;;;;;;;24.67;9.73;;;20.00;75.70;;;;;;10499251;28;20028;-60
2021/09/24 14:55:48;;;;;;;15.73;8.43;;;20.00;75.80;;;;;;10497986;28;20086;-62
2021/09/24 15:00:48;;;;;;;19.75;8.32;;;20.00;75.50;;;;;;10493154;28;20028;-61
2021/09/24 15:05:49;;;;;;;16.33;9.82;;;20.10;75.20;;;;;;10500415;28;20095;-60
2021/09/24 15:10:50;;;;;;;22.30;9.23;;;20.10;75.10;;;;;;10482601;28;20539;-60
2021/09/24 15:15:50;;;;;;;31.02;10.70;;;20.00;75.50;;;;;;10498164;28;20032;-60
2021/09/24 15:20:51;;;;;;;40.70;10.75;;;20.00;75.40;;;;;;10491237;28;20127;-58
2021/09/24 15:25:52;;;;;;;40.00;10.35;;;20.00;75.70;;;;;;10499163;28;20033;-62
2021/09/24 15:30:56;;;;;;;52.10;12.52;;;20.00;75.80;;;;;;10498453;28;20055;-64
2021/09/24 15:35:56;;;;;;;54.25;11.00;;;20.00;75.70;;;;;;10481442;28;20032;-62
2021/09/24 15:40:57;;;;;;;52.08;11.07;;;20.00;76.10;;;;;;10496335;28;20464;-61
2021/09/24 15:45:58;;;;;;;46.88;11.23;;;20.00;76.00;;;;;;10497544;28;20031;-60
2021/09/24 15:51:01;;;;;;;45.65;12.27;;;20.00;75.90;;;;;;10468137;28;21516;-59
2021/09/24 15:56:02;;;;;;;56.03;10.90;;;20.00;76.20;;;;;;10490249;28;20036;-67
2021/09/24 16:01:02;;;;;;;55.97;10.75;;;20.00;76.60;;;;;;10495458;28;20051;-65
2021/09/24 16:06:03;;;;;;;47.60;10.48;;;20.10;76.10;;;;;;10496245;28;20031;-64
2021/09/24 16:11:04;;;;;;;32.85;9.40;;;20.00;75.80;;;;;;10496381;28;20031;-64
2021/09/24 16:16:05;;;;;;;31.52;9.32;;;19.90;75.80;;;;;;10497460;28;20127;-63
2021/09/24 16:21:06;;;;;;;36.70;10.27;;;19.90;76.00;;;;;;10507759;28;20025;-61
2021/09/24 16:26:06;;;;;;;29.42;8.18;;;20.10;77.30;;;;;;10496249;28;20024;-62
2021/09/24 16:31:07;;;;;;;38.50;10.20;;;20.20;76.40;;;;;;10496162;28;20132;-60
2021/09/24 16:36:08;;;;;;;31.48;9.80;;;20.20;76.10;;;;;;10495782;28;20392;-66
2021/09/24 16:41:09;;;;;;;37.08;10.40;;;20.10;76.30;;;;;;10495561;28;20161;-61
2021/09/24 16:46:10;;;;;;;28.15;9.10;;;20.00;76.00;;;;;;10496774;28;20020;-62
2021/09/24 16:51:10;;;;;;;42.53;9.20;;;20.00;76.20;;;;;;10495420;28;20120;-62
2021/09/24 16:56:11;;;;;;;32.08;10.20;;;20.00;76.40;;;;;;10495561;28;20116;-66
2021/09/24 17:01:13;;;;;;;40.28;9.38;;;19.90;76.20;;;;;;10494904;28;20139;-62
2021/09/24 17:06:14;;;;;;;25.23;7.38;;;19.90;76.30;;;;;;10495045;28;20052;-63
2021/09/24 17:11:14;;;;;;;27.58;8.05;;;19.90;76.20;;;;;;10494812;28;20063;-63
2021/09/24 17:16:16;;;;;;;25.95;9.10;;;19.80;76.00;;;;;;10494723;28;20082;-63
2021/09/24 17:21:16;;;;;;;25.55;7.82;;;19.80;76.10;;;;;;10504199;28;20029;-63
2021/09/24 17:26:17;;;;;;;15.95;7.18;;;19.80;76.10;;;;;;10477825;28;20032;-63
2021/09/24 17:31:18;;;;;;;16.45;7.70;;;19.70;76.10;;;;;;10494265;28;20124;-63
2021/09/24 17:36:18;;;;;;;18.00;7.32;;;19.70;76.20;;;;;;10494186;28;20121;-65
2021/09/24 17:41:19;;;;;;;24.55;7.50;;;19.70;76.30;;;;;;10494007;28;20031;-63
2021/09/24 17:46:20;;;;;;;22.98;8.32;;;19.80;76.20;;;;;;10501191;28;20028;-61
2021/09/24 17:51:21;;;;;;;15.02;7.40;;;19.80;76.20;;;;;;10484118;28;20024;-62
2021/09/24 17:56:21;;;;;;;18.25;6.80;;;19.70;76.00;;;;;;10501667;28;20044;-59
2021/09/24 18:01:23;;;;;;;16.35;7.55;;;19.70;76.00;;;;;;10502453;28;20029;-58
2021/09/24 18:06:23;;;;;;;15.70;6.78;;;19.70;76.00;;;;;;10502424;28;20530;-59
2021/09/24 18:11:25;;;;;;;9.45;6.20;;;19.70;75.80;;;;;;10500402;28;20030;-61
2021/09/24 18:16:25;;;;;;;15.68;6.25;;;19.70;75.70;;;;;;10501563;28;20036;-60
2021/09/24 18:21:26;;;;;;;12.82;6.60;;;19.80;75.80;;;;;;10489730;28;20063;-62
2021/09/24 18:26:27;;;;;;;13.02;5.70;;;19.70;75.70;;;;;;10479042;28;20170;-62
2021/09/24 18:31:28;;;;;;;10.95;6.15;;;19.70;75.80;;;;;;10497123;28;20078;-62
2021/09/24 18:36:28;;;;;;;13.02;6.93;;;19.70;75.40;;;;;;10498643;28;20035;-61
2021/09/24 18:41:30;;;;;;;11.48;7.50;;;19.70;75.50;;;;;;10500039;28;20032;-62
2021/09/24 18:46:32;;;;;;;13.85;6.05;;;19.70;75.50;;;;;;10498141;28;20047;-62
2021/09/24 18:51:33;;;;;;;14.57;6.45;;;19.70;75.50;;;;;;10498151;28;20028;-62
2021/09/24 18:56:34;;;;;;;12.25;6.03;;;19.80;75.60;;;;;;10496529;28;20454;-63
2021/09/24 19:01:37;;;;;;;14.93;5.63;;;19.70;75.60;;;;;;10497498;28;20020;-60
2021/09/24 19:06:38;;;;;;;9.65;5.82;;;19.80;75.80;;;;;;10494941;28;20476;-61
2021/09/24 19:11:39;;;;;;;9.77;5.72;;;19.70;75.60;;;;;;10500341;28;20117;-60
2021/09/24 19:16:39;;;;;;;10.82;6.82;;;19.70;75.30;;;;;;10482362;28;20424;-61
2021/09/24 19:21:40;;;;;;;10.05;5.88;;;19.70;75.40;;;;;;10509364;28;20111;-60
2021/09/24 19:26:41;;;;;;;9.30;5.65;;;19.70;75.60;;;;;;10498029;28;20031;-60
2021/09/24 19:31:41;;;;;;;9.85;5.28;;;19.70;75.60;;;;;;10494124;28;20044;-60
2021/09/24 19:36:42;;;;;;;7.72;5.25;;;19.60;75.50;;;;;;10496607;28;20111;-61
2021/09/24 19:41:43;;;;;;;12.32;6.90;;;19.70;75.50;;;;;;10477495;28;20024;-62
2021/09/24 19:46:44;;;;;;;9.82;5.38;;;19.60;75.30;;;;;;10495011;28;20078;-62
2021/09/24 19:51:45;;;;;;;8.68;5.95;;;19.60;75.20;;;;;;10494449;28;20078;-62
2021/09/24 19:56:46;;;;;;;9.15;5.47;;;19.60;75.20;;;;;;10494422;28;20033;-63
2021/09/24 20:01:46;;;;;;;10.27;5.38;;;19.60;75.20;;;;;;10496849;28;20027;-62
2021/09/24 20:06:49;;;;;;;7.32;4.75;;;19.60;75.20;;;;;;10497082;28;20111;-62
2021/09/24 20:11:50;;;;;;;8.02;5.07;;;19.60;75.30;;;;;;10497852;28;20373;-62
2021/09/24 20:16:50;;;;;;;8.73;5.60;;;19.60;75.20;;;;;;10496328;28;20043;-62
2021/09/24 20:21:51;;;;;;;10.48;5.90;;;19.60;75.20;;;;;;10496322;28;20071;-62
2021/09/24 20:26:54;;;;;;;10.13;5.40;;;19.60;75.20;;;;;;10495796;28;20024;-63
2021/09/24 20:31:55;;;;;;;8.18;4.70;;;19.60;75.20;;;;;;10482746;28;20041;-62
2021/09/24 20:36:55;;;;;;;6.70;4.78;;;19.60;75.20;;;;;;10496931;28;20079;-62
2021/09/24 20:41:56;;;;;;;8.18;5.25;;;19.60;75.20;;;;;;10495685;28;20040;-62
2021/09/24 20:46:57;;;;;;;9.68;5.15;;;19.50;75.10;;;;;;10497063;28;20120;-62
2021/09/24 20:51:58;;;;;;;8.18;4.90;;;19.50;75.10;;;;;;10496825;28;20036;-62
2021/09/24 20:57:00;;;;;;;7.78;4.80;;;19.60;75.10;;;;;;10496946;28;20062;-62
2021/09/24 21:02:01;;;;;;;6.13;4.65;;;19.50;75.00;;;;;;10495647;28;20450;-62
2021/09/24 21:07:02;;;;;;;6.90;5.00;;;19.50;75.00;;;;;;10496560;28;20119;-62
2021/09/24 21:12:03;;;;;;;5.45;4.75;;;19.50;75.00;;;;;;10496447;28;20104;-63
2021/09/24 21:17:04;;;;;;;9.00;5.55;;;19.60;75.00;;;;;;10497063;28;20047;-62
2021/09/24 21:22:05;;;;;;;5.68;4.15;;;19.60;75.00;;;;;;10529933;28;20036;-62
2021/09/24 21:27:08;;;;;;;7.07;4.50;;;19.50;75.00;;;;;;10503887;28;20024;-62
2021/09/24 21:32:08;;;;;;;6.25;4.45;;;19.50;74.90;;;;;;10503132;28;20386;-63
2021/09/24 21:37:09;;;;;;;6.22;4.53;;;19.60;75.00;;;;;;10503910;28;20033;-63
2021/09/24 21:42:10;;;;;;;6.15;4.55;;;19.50;74.90;;;;;;10502384;28;20028;-62
2021/09/24 21:47:11;;;;;;;7.65;4.95;;;19.60;74.90;;;;;;10503427;28;20039;-62
2021/09/24 21:52:11;;;;;;;5.78;5.18;;;19.50;74.90;;;;;;10502143;28;20025;-62
2021/09/24 21:57:12;;;;;;;4.38;3.83;;;19.50;74.90;;;;;;10502019;28;20040;-62
2021/09/24 22:02:13;;;;;;;7.20;5.32;;;19.50;74.90;;;;;;10501818;28;20115;-62
2021/09/24 22:07:13;;;;;;;5.47;3.90;;;19.50;75.40;;;;;;10501409;28;20377;-62
2021/09/24 22:12:15;;;;;;;6.93;4.00;;;19.50;74.80;;;;;;10501386;28;20040;-62
2021/09/24 22:17:16;;;;;;;5.28;4.50;;;19.50;74.80;;;;;;10501304;28;20095;-62
2021/09/24 22:22:18;;;;;;;4.93;4.15;;;19.50;74.80;;;;;;10500900;28;20020;-62
2021/09/24 22:27:19;;;;;;;8.48;4.15;;;19.50;74.80;;;;;;10500216;28;20072;-62
2021/09/24 22:32:20;;;;;;;5.10;4.13;;;19.50;74.70;;;;;;10500212;28;20037;-62
2021/09/24 22:37:20;;;;;;;5.30;4.05;;;19.50;74.70;;;;;;10500220;28;20045;-62
2021/09/24 22:42:21;;;;;;;4.97;3.70;;;19.50;74.70;;;;;;10500253;28;20040;-62
2021/09/24 22:47:22;;;;;;;5.85;3.83;;;19.50;74.70;;;;;;10499821;28;20033;-62
2021/09/24 22:52:22;;;;;;;5.53;4.05;;;19.50;74.70;;;;;;10500139;28;20033;-62
2021/09/24 22:57:26;;;;;;;5.32;4.13;;;19.50;74.60;;;;;;10499630;28;20112;-62
2021/09/24 23:02:27;;;;;;;5.00;3.70;;;19.50;74.70;;;;;;10500616;28;20412;-62
2021/09/24 23:07:28;;;;;;;5.50;4.13;;;19.50;74.70;;;;;;10498950;28;20055;-62
2021/09/24 23:12:29;;;;;;;4.95;3.70;;;19.50;74.70;;;;;;10499970;28;20036;-62
2021/09/24 23:17:30;;;;;;;5.38;3.88;;;19.50;74.70;;;;;;10498826;28;20033;-62
2021/09/24 23:22:31;;;;;;;6.03;3.85;;;19.50;74.70;;;;;;10510257;28;20116;-62
2021/09/24 23:27:32;;;;;;;4.57;3.55;;;19.50;74.70;;;;;;10498939;28;20044;-62
2021/09/24 23:32:33;;;;;;;3.67;3.17;;;19.50;74.70;;;;;;10488163;28;20093;-62
2021/09/24 23:37:33;;;;;;;5.18;4.15;;;19.50;74.70;;;;;;10498479;28;20085;-61
2021/09/24 23:42:35;;;;;;;4.68;3.22;;;19.50;74.60;;;;;;10497313;28;20083;-62
2021/09/24 23:47:36;;;;;;;4.97;3.72;;;19.50;74.70;;;;;;10497384;28;20143;-62
2021/09/24 23:52:41;;;;;;;4.82;3.97;;;19.50;74.70;;;;;;10498621;28;20028;-62
2021/09/24 23:57:43;;;;;;;5.68;3.63;;;19.50;74.60;;;;;;10498384;28;20028;-62
